sensor_id;sensor_type;location;lat;lon;timestamp;temperature;humidity
14144;DHT22;7152;48.348;10.980;2023-04-03T00:01:27;4.00;99.90
14144;DHT22;7152;48.348;10.980;2023-04-03T00:03:52;4.10;99.90
14144;DHT22;7152;48.348;10.980;2023-04-03T00:06:18;4.10;99.90
14144;DHT22;7152;48.348;10.980;2023-04-03T00:08:44;4.10;99.90
14144;DHT22;7152;48.348;10.980;2023-04-03T00:11:10;4.10;99.90
14144;DHT22;7152;48.348;10.980;2023-04-03T00:13:36;4.10;99.90
14144;DHT22;7152;48.348;10.980;2023-04-03T00:16:02;4.20;99.90
14144;DHT22;7152;48.348;10.980;2023-04-03T00:18:29;4.20;99.90
14144;DHT22;7152;48.348;10.980;2023-04-03T00:20:54;4.20;99.90
14144;DHT22;7152;48.348;10.980;2023-04-03T00:23:20;4.20;99.90
14144;DHT22;7152;48.348;10.980;2023-04-03T00:25:46;4.20;99.90
14144;DHT22;7152;48.348;10.980;2023-04-03T00:28:12;4.20;99.90
14144;DHT22;7152;48.348;10.980;2023-04-03T00:30:38;4.20;99.90
14144;DHT22;7152;48.348;10.980;2023-04-03T00:33:03;4.20;99.90
14144;DHT22;7152;48.348;10.980;2023-04-03T00:35:29;4.20;99.90
14144;DHT22;7152;48.348;10.980;2023-04-03T00:37:55;4.20;99.90
14144;DHT22;7152;48.348;10.980;2023-04-03T00:40:23;4.20;99.90
14144;DHT22;7152;48.348;10.980;2023-04-03T00:42:54;4.10;99.90
14144;DHT22;7152;48.348;10.980;2023-04-03T00:45:48;4.20;99.90
14144;DHT22;7152;48.348;10.980;2023-04-03T00:48:18;4.20;99.90
14144;DHT22;7152;48.348;10.980;2023-04-03T00:50:45;4.20;99.90
14144;DHT22;7152;48.348;10.980;2023-04-03T00:53:15;4.20;99.90
14144;DHT22;7152;48.348;10.980;2023-04-03T00:55:42;4.20;99.90
14144;DHT22;7152;48.348;10.980;2023-04-03T00:58:09;4.20;99.90
14144;DHT22;7152;48.348;10.980;2023-04-03T01:00:38;4.20;99.90
14144;DHT22;7152;48.348;10.980;2023-04-03T01:03:05;4.20;99.90
14144;DHT22;7152;48.348;10.980;2023-04-03T01:05:31;4.20;99.90
14144;DHT22;7152;48.348;10.980;2023-04-03T01:07:58;4.20;99.90
14144;DHT22;7152;48.348;10.980;2023-04-03T01:10:24;4.20;99.90
14144;DHT22;7152;48.348;10.980;2023-04-03T01:12:51;4.10;99.90
14144;DHT22;7152;48.348;10.980;2023-04-03T01:15:21;4.10;99.90
14144;DHT22;7152;48.348;10.980;2023-04-03T01:17:51;4.10;99.90
14144;DHT22;7152;48.348;10.980;2023-04-03T01:25:46;4.10;99.90
14144;DHT22;7152;48.348;10.980;2023-04-03T01:28:41;4.00;99.90
14144;DHT22;7152;48.348;10.980;2023-04-03T01:31:15;4.10;99.90
14144;DHT22;7152;48.348;10.980;2023-04-03T01:33:44;4.10;99.90
14144;DHT22;7152;48.348;10.980;2023-04-03T01:36:16;4.00;99.90
14144;DHT22;7152;48.348;10.980;2023-04-03T01:38:42;4.00;99.90
14144;DHT22;7152;48.348;10.980;2023-04-03T01:41:08;4.00;99.90
14144;DHT22;7152;48.348;10.980;2023-04-03T01:43:34;3.90;99.90
14144;DHT22;7152;48.348;10.980;2023-04-03T01:45:59;3.90;99.90
14144;DHT22;7152;48.348;10.980;2023-04-03T01:48:25;4.00;99.90
14144;DHT22;7152;48.348;10.980;2023-04-03T01:50:51;4.00;99.90
14144;DHT22;7152;48.348;10.980;2023-04-03T01:53:16;4.00;99.90
14144;DHT22;7152;48.348;10.980;2023-04-03T01:55:42;4.00;99.90
14144;DHT22;7152;48.348;10.980;2023-04-03T01:58:08;3.90;99.90
14144;DHT22;7152;48.348;10.980;2023-04-03T02:00:33;4.00;99.90
14144;DHT22;7152;48.348;10.980;2023-04-03T02:02:59;3.90;99.90
14144;DHT22;7152;48.348;10.980;2023-04-03T02:05:25;3.90;99.90
14144;DHT22;7152;48.348;10.980;2023-04-03T02:07:50;3.90;99.90
14144;DHT22;7152;48.348;10.980;2023-04-03T02:10:16;4.00;99.90
14144;DHT22;7152;48.348;10.980;2023-04-03T02:12:42;3.90;99.90
14144;DHT22;7152;48.348;10.980;2023-04-03T02:15:08;3.90;99.90
14144;DHT22;7152;48.348;10.980;2023-04-03T02:17:35;3.90;99.90
14144;DHT22;7152;48.348;10.980;2023-04-03T02:20:00;3.90;99.90
14144;DHT22;7152;48.348;10.980;2023-04-03T02:22:26;3.90;99.90
14144;DHT22;7152;48.348;10.980;2023-04-03T02:24:52;3.90;99.90
14144;DHT22;7152;48.348;10.980;2023-04-03T02:27:17;3.90;99.90
14144;DHT22;7152;48.348;10.980;2023-04-03T02:29:43;3.90;99.90
14144;DHT22;7152;48.348;10.980;2023-04-03T02:32:08;3.90;99.90
14144;DHT22;7152;48.348;10.980;2023-04-03T02:34:34;3.90;99.90
14144;DHT22;7152;48.348;10.980;2023-04-03T02:37:00;3.80;99.90
14144;DHT22;7152;48.348;10.980;2023-04-03T02:39:25;3.80;99.90
14144;DHT22;7152;48.348;10.980;2023-04-03T02:41:51;3.80;99.90
14144;DHT22;7152;48.348;10.980;2023-04-03T02:44:17;3.80;99.90
14144;DHT22;7152;48.348;10.980;2023-04-03T02:46:43;3.80;99.90
14144;DHT22;7152;48.348;10.980;2023-04-03T02:49:08;3.80;99.90
14144;DHT22;7152;48.348;10.980;2023-04-03T02:51:34;3.80;99.90
14144;DHT22;7152;48.348;10.980;2023-04-03T02:53:59;3.70;99.90
14144;DHT22;7152;48.348;10.980;2023-04-03T02:56:26;3.80;99.90
14144;DHT22;7152;48.348;10.980;2023-04-03T02:58:52;3.70;99.90
14144;DHT22;7152;48.348;10.980;2023-04-03T03:01:18;3.80;99.90
14144;DHT22;7152;48.348;10.980;2023-04-03T03:03:43;3.80;99.90
14144;DHT22;7152;48.348;10.980;2023-04-03T03:06:12;3.80;99.90
14144;DHT22;7152;48.348;10.980;2023-04-03T03:08:38;3.80;99.90
14144;DHT22;7152;48.348;10.980;2023-04-03T03:11:05;3.80;99.90
14144;DHT22;7152;48.348;10.980;2023-04-03T03:13:31;3.90;99.90
14144;DHT22;7152;48.348;10.980;2023-04-03T03:15:57;3.80;99.90
14144;DHT22;7152;48.348;10.980;2023-04-03T03:18:23;3.80;99.90
14144;DHT22;7152;48.348;10.980;2023-04-03T03:20:53;3.80;99.90
14144;DHT22;7152;48.348;10.980;2023-04-03T03:23:19;3.80;99.90
14144;DHT22;7152;48.348;10.980;2023-04-03T03:25:44;3.80;99.90
14144;DHT22;7152;48.348;10.980;2023-04-03T03:28:10;3.80;99.90
14144;DHT22;7152;48.348;10.980;2023-04-03T03:30:37;3.80;99.90
14144;DHT22;7152;48.348;10.980;2023-04-03T03:33:02;3.80;99.90
14144;DHT22;7152;48.348;10.980;2023-04-03T03:35:28;3.70;99.90
14144;DHT22;7152;48.348;10.980;2023-04-03T03:37:54;3.70;99.90
14144;DHT22;7152;48.348;10.980;2023-04-03T03:40:19;3.70;99.90
14144;DHT22;7152;48.348;10.980;2023-04-03T03:42:45;3.70;99.90
14144;DHT22;7152;48.348;10.980;2023-04-03T03:45:11;3.70;99.90
14144;DHT22;7152;48.348;10.980;2023-04-03T03:47:36;3.70;99.90
14144;DHT22;7152;48.348;10.980;2023-04-03T03:50:03;3.70;99.90
14144;DHT22;7152;48.348;10.980;2023-04-03T03:52:28;3.70;99.90
14144;DHT22;7152;48.348;10.980;2023-04-03T03:54:55;3.70;99.90
14144;DHT22;7152;48.348;10.980;2023-04-03T03:57:21;3.70;99.90
14144;DHT22;7152;48.348;10.980;2023-04-03T03:59:47;3.70;99.90
14144;DHT22;7152;48.348;10.980;2023-04-03T04:02:14;3.70;99.90
14144;DHT22;7152;48.348;10.980;2023-04-03T04:04:39;3.70;99.90
14144;DHT22;7152;48.348;10.980;2023-04-03T04:07:05;3.70;99.90
14144;DHT22;7152;48.348;10.980;2023-04-03T04:09:31;3.60;99.90
14144;DHT22;7152;48.348;10.980;2023-04-03T04:11:56;3.60;99.90
14144;DHT22;7152;48.348;10.980;2023-04-03T04:14:22;3.60;99.90
14144;DHT22;7152;48.348;10.980;2023-04-03T04:16:47;3.60;99.90
14144;DHT22;7152;48.348;10.980;2023-04-03T04:19:13;3.60;99.90
14144;DHT22;7152;48.348;10.980;2023-04-03T04:21:39;3.60;99.90
14144;DHT22;7152;48.348;10.980;2023-04-03T04:24:07;3.60;99.90
14144;DHT22;7152;48.348;10.980;2023-04-03T04:26:33;3.60;99.90
14144;DHT22;7152;48.348;10.980;2023-04-03T04:28:58;3.60;99.90
14144;DHT22;7152;48.348;10.980;2023-04-03T04:31:24;3.60;99.90
14144;DHT22;7152;48.348;10.980;2023-04-03T04:33:50;3.60;99.90
14144;DHT22;7152;48.348;10.980;2023-04-03T04:36:15;3.60;99.90
14144;DHT22;7152;48.348;10.980;2023-04-03T04:38:41;3.50;99.90
14144;DHT22;7152;48.348;10.980;2023-04-03T04:41:08;3.50;99.90
14144;DHT22;7152;48.348;10.980;2023-04-03T04:43:33;3.50;99.90
14144;DHT22;7152;48.348;10.980;2023-04-03T04:46:06;3.50;99.90
14144;DHT22;7152;48.348;10.980;2023-04-03T04:48:32;3.50;99.90
14144;DHT22;7152;48.348;10.980;2023-04-03T04:50:58;3.50;99.90
14144;DHT22;7152;48.348;10.980;2023-04-03T04:53:23;3.50;99.90
14144;DHT22;7152;48.348;10.980;2023-04-03T04:55:49;3.50;99.90
14144;DHT22;7152;48.348;10.980;2023-04-03T04:58:15;3.50;99.90
14144;DHT22;7152;48.348;10.980;2023-04-03T05:00:40;3.50;99.90
14144;DHT22;7152;48.348;10.980;2023-04-03T05:03:06;3.50;99.90
14144;DHT22;7152;48.348;10.980;2023-04-03T05:05:31;3.50;99.90
14144;DHT22;7152;48.348;10.980;2023-04-03T05:07:57;3.50;99.90
14144;DHT22;7152;48.348;10.980;2023-04-03T05:10:23;3.50;99.90
14144;DHT22;7152;48.348;10.980;2023-04-03T05:12:48;3.50;99.90
14144;DHT22;7152;48.348;10.980;2023-04-03T05:15:14;3.50;99.90
14144;DHT22;7152;48.348;10.980;2023-04-03T05:17:40;3.50;99.90
14144;DHT22;7152;48.348;10.980;2023-04-03T05:20:06;3.40;99.90
14144;DHT22;7152;48.348;10.980;2023-04-03T05:22:32;3.40;99.90
14144;DHT22;7152;48.348;10.980;2023-04-03T05:24:58;3.40;99.90
14144;DHT22;7152;48.348;10.980;2023-04-03T05:27:23;3.50;99.90
14144;DHT22;7152;48.348;10.980;2023-04-03T05:29:50;3.50;99.90
14144;DHT22;7152;48.348;10.980;2023-04-03T05:32:16;3.50;99.90
14144;DHT22;7152;48.348;10.980;2023-04-03T05:34:42;3.50;99.90
14144;DHT22;7152;48.348;10.980;2023-04-03T05:37:07;3.50;99.90
14144;DHT22;7152;48.348;10.980;2023-04-03T05:39:33;3.40;99.90
14144;DHT22;7152;48.348;10.980;2023-04-03T05:41:59;3.50;99.90
14144;DHT22;7152;48.348;10.980;2023-04-03T05:44:25;3.50;99.90
14144;DHT22;7152;48.348;10.980;2023-04-03T05:46:51;3.50;99.90
14144;DHT22;7152;48.348;10.980;2023-04-03T05:49:16;3.50;99.90
14144;DHT22;7152;48.348;10.980;2023-04-03T05:51:42;3.60;99.90
14144;DHT22;7152;48.348;10.980;2023-04-03T05:54:25;3.60;99.90
14144;DHT22;7152;48.348;10.980;2023-04-03T05:56:51;3.70;99.90
14144;DHT22;7152;48.348;10.980;2023-04-03T05:59:17;3.70;99.90
14144;DHT22;7152;48.348;10.980;2023-04-03T06:01:43;3.70;99.90
14144;DHT22;7152;48.348;10.980;2023-04-03T06:04:10;3.70;99.90
14144;DHT22;7152;48.348;10.980;2023-04-03T06:06:51;3.70;99.90
14144;DHT22;7152;48.348;10.980;2023-04-03T06:09:19;3.80;99.90
14144;DHT22;7152;48.348;10.980;2023-04-03T06:11:46;3.90;99.90
14144;DHT22;7152;48.348;10.980;2023-04-03T06:14:11;3.90;99.90
14144;DHT22;7152;48.348;10.980;2023-04-03T06:16:37;3.80;99.90
14144;DHT22;7152;48.348;10.980;2023-04-03T06:19:05;3.90;99.90
14144;DHT22;7152;48.348;10.980;2023-04-03T06:21:31;4.00;99.90
14144;DHT22;7152;48.348;10.980;2023-04-03T06:23:57;4.00;99.90
14144;DHT22;7152;48.348;10.980;2023-04-03T06:26:23;4.10;99.90
14144;DHT22;7152;48.348;10.980;2023-04-03T06:28:48;4.20;99.90
14144;DHT22;7152;48.348;10.980;2023-04-03T06:31:14;4.20;99.90
14144;DHT22;7152;48.348;10.980;2023-04-03T06:33:40;4.10;99.90
14144;DHT22;7152;48.348;10.980;2023-04-03T06:36:06;4.10;99.90
14144;DHT22;7152;48.348;10.980;2023-04-03T06:38:33;4.20;99.90
14144;DHT22;7152;48.348;10.980;2023-04-03T06:40:59;4.30;99.90
14144;DHT22;7152;48.348;10.980;2023-04-03T06:43:25;4.40;99.90
14144;DHT22;7152;48.348;10.980;2023-04-03T06:45:52;4.40;99.90
14144;DHT22;7152;48.348;10.980;2023-04-03T06:48:17;4.40;99.90
14144;DHT22;7152;48.348;10.980;2023-04-03T06:50:43;4.40;99.90
14144;DHT22;7152;48.348;10.980;2023-04-03T06:53:09;4.50;99.90
14144;DHT22;7152;48.348;10.980;2023-04-03T06:55:35;4.50;99.90
14144;DHT22;7152;48.348;10.980;2023-04-03T06:58:01;4.50;99.90
14144;DHT22;7152;48.348;10.980;2023-04-03T07:00:27;4.60;99.90
14144;DHT22;7152;48.348;10.980;2023-04-03T07:02:53;4.60;99.90
14144;DHT22;7152;48.348;10.980;2023-04-03T07:05:18;4.70;99.90
14144;DHT22;7152;48.348;10.980;2023-04-03T07:07:44;4.70;99.90
14144;DHT22;7152;48.348;10.980;2023-04-03T07:10:10;4.80;99.90
14144;DHT22;7152;48.348;10.980;2023-04-03T07:12:37;4.90;99.90
14144;DHT22;7152;48.348;10.980;2023-04-03T07:15:04;5.00;99.90
14144;DHT22;7152;48.348;10.980;2023-04-03T07:17:30;5.10;99.90
14144;DHT22;7152;48.348;10.980;2023-04-03T07:19:56;5.00;99.90
14144;DHT22;7152;48.348;10.980;2023-04-03T07:22:22;5.10;99.90
14144;DHT22;7152;48.348;10.980;2023-04-03T07:24:48;5.20;99.90
14144;DHT22;7152;48.348;10.980;2023-04-03T07:27:13;5.30;99.90
14144;DHT22;7152;48.348;10.980;2023-04-03T07:29:39;5.40;99.90
14144;DHT22;7152;48.348;10.980;2023-04-03T07:32:06;5.40;99.90
14144;DHT22;7152;48.348;10.980;2023-04-03T07:34:32;5.50;99.90
14144;DHT22;7152;48.348;10.980;2023-04-03T07:36:58;5.50;99.90
14144;DHT22;7152;48.348;10.980;2023-04-03T07:39:24;5.50;99.90
14144;DHT22;7152;48.348;10.980;2023-04-03T07:41:50;5.50;99.90
14144;DHT22;7152;48.348;10.980;2023-04-03T07:44:16;5.60;99.90
14144;DHT22;7152;48.348;10.980;2023-04-03T07:46:41;5.50;99.90
14144;DHT22;7152;48.348;10.980;2023-04-03T07:49:08;5.50;99.90
14144;DHT22;7152;48.348;10.980;2023-04-03T07:51:33;5.60;99.90
14144;DHT22;7152;48.348;10.980;2023-04-03T07:54:00;5.70;99.90
14144;DHT22;7152;48.348;10.980;2023-04-03T07:56:26;5.80;99.90
14144;DHT22;7152;48.348;10.980;2023-04-03T07:58:51;5.80;99.90
14144;DHT22;7152;48.348;10.980;2023-04-03T08:01:17;5.90;99.90
14144;DHT22;7152;48.348;10.980;2023-04-03T08:03:43;6.00;99.90
14144;DHT22;7152;48.348;10.980;2023-04-03T08:06:09;6.00;99.90
14144;DHT22;7152;48.348;10.980;2023-04-03T08:08:35;6.10;99.90
14144;DHT22;7152;48.348;10.980;2023-04-03T08:11:01;6.10;99.90
14144;DHT22;7152;48.348;10.980;2023-04-03T08:13:29;6.20;99.90
14144;DHT22;7152;48.348;10.980;2023-04-03T08:15:56;6.20;99.90
14144;DHT22;7152;48.348;10.980;2023-04-03T08:18:23;6.30;99.90
14144;DHT22;7152;48.348;10.980;2023-04-03T08:20:51;6.30;99.90
14144;DHT22;7152;48.348;10.980;2023-04-03T08:23:18;6.50;99.90
14144;DHT22;7152;48.348;10.980;2023-04-03T08:25:44;6.50;99.90
14144;DHT22;7152;48.348;10.980;2023-04-03T08:28:11;6.40;99.90
14144;DHT22;7152;48.348;10.980;2023-04-03T08:30:41;6.60;99.90
14144;DHT22;7152;48.348;10.980;2023-04-03T08:33:07;6.60;99.90
14144;DHT22;7152;48.348;10.980;2023-04-03T08:35:38;6.80;99.90
14144;DHT22;7152;48.348;10.980;2023-04-03T08:38:04;6.90;99.90
14144;DHT22;7152;48.348;10.980;2023-04-03T08:40:30;7.00;99.90
14144;DHT22;7152;48.348;10.980;2023-04-03T08:48:05;7.20;99.90
14144;DHT22;7152;48.348;10.980;2023-04-03T08:50:41;7.30;99.90
14144;DHT22;7152;48.348;10.980;2023-04-03T08:53:17;7.50;99.90
14144;DHT22;7152;48.348;10.980;2023-04-03T08:55:51;7.50;99.90
14144;DHT22;7152;48.348;10.980;2023-04-03T08:58:19;7.60;99.90
14144;DHT22;7152;48.348;10.980;2023-04-03T09:00:51;7.60;99.90
14144;DHT22;7152;48.348;10.980;2023-04-03T09:03:20;7.60;99.90
14144;DHT22;7152;48.348;10.980;2023-04-03T09:06:07;7.70;99.90
14144;DHT22;7152;48.348;10.980;2023-04-03T09:11:26;7.80;99.90
14144;DHT22;7152;48.348;10.980;2023-04-03T09:14:07;7.90;99.90
14144;DHT22;7152;48.348;10.980;2023-04-03T09:16:52;8.00;99.90
14144;DHT22;7152;48.348;10.980;2023-04-03T09:19:23;8.00;99.90
14144;DHT22;7152;48.348;10.980;2023-04-03T09:21:51;8.00;99.90
14144;DHT22;7152;48.348;10.980;2023-04-03T09:24:17;7.90;99.90
14144;DHT22;7152;48.348;10.980;2023-04-03T09:26:53;8.10;99.90
14144;DHT22;7152;48.348;10.980;2023-04-03T09:29:23;8.10;99.90
14144;DHT22;7152;48.348;10.980;2023-04-03T09:31:51;8.00;99.90
14144;DHT22;7152;48.348;10.980;2023-04-03T09:34:26;8.10;99.90
14144;DHT22;7152;48.348;10.980;2023-04-03T09:36:54;8.00;99.90
14144;DHT22;7152;48.348;10.980;2023-04-03T09:39:26;7.90;99.90
14144;DHT22;7152;48.348;10.980;2023-04-03T09:42:06;7.80;99.90
14144;DHT22;7152;48.348;10.980;2023-04-03T09:44:41;7.70;99.90
14144;DHT22;7152;48.348;10.980;2023-04-03T09:47:27;7.60;99.90
14144;DHT22;7152;48.348;10.980;2023-04-03T09:50:19;7.70;99.90
14144;DHT22;7152;48.348;10.980;2023-04-03T09:52:48;7.60;99.90
14144;DHT22;7152;48.348;10.980;2023-04-03T09:58:02;7.30;99.90
14144;DHT22;7152;48.348;10.980;2023-04-03T10:00:37;7.20;99.90
14144;DHT22;7152;48.348;10.980;2023-04-03T10:03:21;7.10;99.90
14144;DHT22;7152;48.348;10.980;2023-04-03T10:05:49;6.90;99.90
14144;DHT22;7152;48.348;10.980;2023-04-03T10:10:47;6.80;99.90
14144;DHT22;7152;48.348;10.980;2023-04-03T10:15:45;6.60;99.90
14144;DHT22;7152;48.348;10.980;2023-04-03T10:18:43;6.50;99.90
14144;DHT22;7152;48.348;10.980;2023-04-03T10:21:20;6.40;99.90
14144;DHT22;7152;48.348;10.980;2023-04-03T10:23:54;6.40;99.90
14144;DHT22;7152;48.348;10.980;2023-04-03T10:29:13;6.70;99.90
14144;DHT22;7152;48.348;10.980;2023-04-03T10:34:31;6.80;99.90
14144;DHT22;7152;48.348;10.980;2023-04-03T10:39:59;6.90;99.90
14144;DHT22;7152;48.348;10.980;2023-04-03T10:56:13;7.00;99.90
14144;DHT22;7152;48.348;10.980;2023-04-03T10:58:48;6.90;99.90
14144;DHT22;7152;48.348;10.980;2023-04-03T11:01:22;6.90;99.90
14144;DHT22;7152;48.348;10.980;2023-04-03T11:03:58;7.00;99.90
14144;DHT22;7152;48.348;10.980;2023-04-03T11:06:26;6.90;99.90
14144;DHT22;7152;48.348;10.980;2023-04-03T11:09:15;6.90;99.90
14144;DHT22;7152;48.348;10.980;2023-04-03T11:11:43;7.00;99.90
14144;DHT22;7152;48.348;10.980;2023-04-03T11:14:33;6.80;99.90
14144;DHT22;7152;48.348;10.980;2023-04-03T11:22:42;6.60;99.90
14144;DHT22;7152;48.348;10.980;2023-04-03T11:27:43;6.50;99.90
14144;DHT22;7152;48.348;10.980;2023-04-03T11:35:46;6.80;99.90
14144;DHT22;7152;48.348;10.980;2023-04-03T11:38:25;7.00;99.90
14144;DHT22;7152;48.348;10.980;2023-04-03T11:40:53;7.20;99.90
14144;DHT22;7152;48.348;10.980;2023-04-03T11:43:28;7.30;99.90
14144;DHT22;7152;48.348;10.980;2023-04-03T11:46:04;7.40;99.90
14144;DHT22;7152;48.348;10.980;2023-04-03T11:53:42;7.00;99.90
14144;DHT22;7152;48.348;10.980;2023-04-03T11:59:21;6.80;99.90
14144;DHT22;7152;48.348;10.980;2023-04-03T12:01:50;6.60;99.90
14144;DHT22;7152;48.348;10.980;2023-04-03T12:04:18;6.60;99.90
14144;DHT22;7152;48.348;10.980;2023-04-03T12:18:41;7.20;99.90
14144;DHT22;7152;48.348;10.980;2023-04-03T12:21:09;7.90;99.90
14144;DHT22;7152;48.348;10.980;2023-04-03T12:23:36;8.10;99.90
14144;DHT22;7152;48.348;10.980;2023-04-03T12:26:24;8.40;99.90
14144;DHT22;7152;48.348;10.980;2023-04-03T12:28:53;8.70;99.90
14144;DHT22;7152;48.348;10.980;2023-04-03T12:31:19;9.00;99.90
14144;DHT22;7152;48.348;10.980;2023-04-03T12:34:18;9.30;99.90
14144;DHT22;7152;48.348;10.980;2023-04-03T12:37:03;9.40;99.90
14144;DHT22;7152;48.348;10.980;2023-04-03T12:39:58;9.50;99.90
14144;DHT22;7152;48.348;10.980;2023-04-03T12:42:49;9.60;99.90
14144;DHT22;7152;48.348;10.980;2023-04-03T12:45:23;9.80;99.90
14144;DHT22;7152;48.348;10.980;2023-04-03T12:47:52;10.10;99.90
14144;DHT22;7152;48.348;10.980;2023-04-03T12:50:22;10.50;99.90
14144;DHT22;7152;48.348;10.980;2023-04-03T12:53:13;10.80;99.90
14144;DHT22;7152;48.348;10.980;2023-04-03T12:55:39;10.90;99.90
14144;DHT22;7152;48.348;10.980;2023-04-03T12:58:35;11.00;99.90
14144;DHT22;7152;48.348;10.980;2023-04-03T13:01:12;11.10;99.90
14144;DHT22;7152;48.348;10.980;2023-04-03T13:03:42;11.60;99.90
14144;DHT22;7152;48.348;10.980;2023-04-03T13:06:17;12.10;99.90
14144;DHT22;7152;48.348;10.980;2023-04-03T13:08:55;12.00;99.90
14144;DHT22;7152;48.348;10.980;2023-04-03T13:11:23;11.70;99.90
14144;DHT22;7152;48.348;10.980;2023-04-03T13:14:02;11.20;99.90
14144;DHT22;7152;48.348;10.980;2023-04-03T13:16:31;10.80;99.90
14144;DHT22;7152;48.348;10.980;2023-04-03T13:18:57;10.70;99.90
14144;DHT22;7152;48.348;10.980;2023-04-03T13:21:28;10.60;99.90
14144;DHT22;7152;48.348;10.980;2023-04-03T13:23:58;10.40;99.90
14144;DHT22;7152;48.348;10.980;2023-04-03T13:26:28;10.00;99.90
14144;DHT22;7152;48.348;10.980;2023-04-03T13:29:01;9.70;99.90
14144;DHT22;7152;48.348;10.980;2023-04-03T13:31:34;9.20;99.90
14144;DHT22;7152;48.348;10.980;2023-04-03T13:36:37;8.30;99.90
14144;DHT22;7152;48.348;10.980;2023-04-03T13:39:25;8.10;99.90
14144;DHT22;7152;48.348;10.980;2023-04-03T13:41:56;7.90;99.90
14144;DHT22;7152;48.348;10.980;2023-04-03T13:47:16;8.00;99.90
14144;DHT22;7152;48.348;10.980;2023-04-03T13:49:59;8.00;99.90
14144;DHT22;7152;48.348;10.980;2023-04-03T13:52:32;8.00;99.80
14144;DHT22;7152;48.348;10.980;2023-04-03T13:55:19;8.20;99.90
14144;DHT22;7152;48.348;10.980;2023-04-03T13:57:58;8.30;99.50
14144;DHT22;7152;48.348;10.980;2023-04-03T14:00:35;8.60;99.90
14144;DHT22;7152;48.348;10.980;2023-04-03T14:03:03;8.80;99.90
14144;DHT22;7152;48.348;10.980;2023-04-03T14:05:36;9.20;99.90
14144;DHT22;7152;48.348;10.980;2023-04-03T14:08:02;9.20;98.80
14144;DHT22;7152;48.348;10.980;2023-04-03T14:10:29;9.30;98.70
14144;DHT22;7152;48.348;10.980;2023-04-03T14:12:55;9.50;99.00
14144;DHT22;7152;48.348;10.980;2023-04-03T14:15:27;9.80;99.10
14144;DHT22;7152;48.348;10.980;2023-04-03T14:17:54;10.10;97.50
14144;DHT22;7152;48.348;10.980;2023-04-03T14:20:24;10.20;97.20
14144;DHT22;7152;48.348;10.980;2023-04-03T14:22:50;10.50;97.00
14144;DHT22;7152;48.348;10.980;2023-04-03T14:25:17;10.60;97.00
14144;DHT22;7152;48.348;10.980;2023-04-03T14:27:46;10.60;96.20
14144;DHT22;7152;48.348;10.980;2023-04-03T14:32:41;10.40;96.60
14144;DHT22;7152;48.348;10.980;2023-04-03T14:35:07;10.50;96.10
14144;DHT22;7152;48.348;10.980;2023-04-03T14:37:33;10.40;95.30
14144;DHT22;7152;48.348;10.980;2023-04-03T14:40:00;10.30;95.30
14144;DHT22;7152;48.348;10.980;2023-04-03T14:42:29;10.20;94.30
14144;DHT22;7152;48.348;10.980;2023-04-03T14:44:57;9.80;93.20
14144;DHT22;7152;48.348;10.980;2023-04-03T14:47:25;9.90;94.90
14144;DHT22;7152;48.348;10.980;2023-04-03T14:49:53;10.20;93.80
14144;DHT22;7152;48.348;10.980;2023-04-03T14:52:31;10.30;94.20
14144;DHT22;7152;48.348;10.980;2023-04-03T14:54:57;10.30;94.00
14144;DHT22;7152;48.348;10.980;2023-04-03T14:57:24;10.10;92.20
14144;DHT22;7152;48.348;10.980;2023-04-03T14:59:51;9.90;93.40
14144;DHT22;7152;48.348;10.980;2023-04-03T15:02:32;10.30;92.90
14144;DHT22;7152;48.348;10.980;2023-04-03T15:04:58;11.40;91.70
14144;DHT22;7152;48.348;10.980;2023-04-03T15:07:27;12.60;92.80
14144;DHT22;7152;48.348;10.980;2023-04-03T15:09:54;13.40;91.60
14144;DHT22;7152;48.348;10.980;2023-04-03T15:12:22;13.20;91.40
14144;DHT22;7152;48.348;10.980;2023-04-03T15:14:48;14.10;90.60
14144;DHT22;7152;48.348;10.980;2023-04-03T15:17:20;13.60;88.90
14144;DHT22;7152;48.348;10.980;2023-04-03T15:19:47;13.10;86.40
14144;DHT22;7152;48.348;10.980;2023-04-03T15:22:17;13.00;85.60
14144;DHT22;7152;48.348;10.980;2023-04-03T15:24:45;13.80;84.10
14144;DHT22;7152;48.348;10.980;2023-04-03T15:27:12;14.90;85.00
14144;DHT22;7152;48.348;10.980;2023-04-03T15:29:38;16.00;84.00
14144;DHT22;7152;48.348;10.980;2023-04-03T15:32:04;16.90;78.20
14144;DHT22;7152;48.348;10.980;2023-04-03T15:34:30;17.00;76.40
14144;DHT22;7152;48.348;10.980;2023-04-03T15:36:56;17.60;76.20
14144;DHT22;7152;48.348;10.980;2023-04-03T15:39:22;17.90;73.40
14144;DHT22;7152;48.348;10.980;2023-04-03T15:41:49;16.60;70.40
14144;DHT22;7152;48.348;10.980;2023-04-03T15:44:14;15.60;70.20
14144;DHT22;7152;48.348;10.980;2023-04-03T15:46:43;14.40;70.30
14144;DHT22;7152;48.348;10.980;2023-04-03T15:49:09;13.20;70.30
14144;DHT22;7152;48.348;10.980;2023-04-03T15:51:35;12.30;70.60
14144;DHT22;7152;48.348;10.980;2023-04-03T15:54:01;11.60;71.80
14144;DHT22;7152;48.348;10.980;2023-04-03T15:56:26;10.90;71.90
14144;DHT22;7152;48.348;10.980;2023-04-03T15:58:52;10.50;72.40
14144;DHT22;7152;48.348;10.980;2023-04-03T16:01:18;11.10;73.90
14144;DHT22;7152;48.348;10.980;2023-04-03T16:03:44;11.80;74.50
14144;DHT22;7152;48.348;10.980;2023-04-03T16:06:12;12.40;75.00
14144;DHT22;7152;48.348;10.980;2023-04-03T16:08:37;12.90;75.00
14144;DHT22;7152;48.348;10.980;2023-04-03T16:11:03;12.90;74.40
14144;DHT22;7152;48.348;10.980;2023-04-03T16:13:29;12.40;72.50
14144;DHT22;7152;48.348;10.980;2023-04-03T16:15:55;11.70;71.60
14144;DHT22;7152;48.348;10.980;2023-04-03T16:18:20;11.00;72.50
14144;DHT22;7152;48.348;10.980;2023-04-03T16:20:46;10.30;72.60
14144;DHT22;7152;48.348;10.980;2023-04-03T16:23:12;9.70;74.40
14144;DHT22;7152;48.348;10.980;2023-04-03T16:25:38;9.40;75.30
14144;DHT22;7152;48.348;10.980;2023-04-03T16:28:04;9.10;75.60
14144;DHT22;7152;48.348;10.980;2023-04-03T16:30:29;8.90;75.60
14144;DHT22;7152;48.348;10.980;2023-04-03T16:32:56;9.10;76.40
14144;DHT22;7152;48.348;10.980;2023-04-03T16:35:22;9.00;76.80
14144;DHT22;7152;48.348;10.980;2023-04-03T16:37:48;9.00;77.60
14144;DHT22;7152;48.348;10.980;2023-04-03T16:40:14;8.90;78.00
14144;DHT22;7152;48.348;10.980;2023-04-03T16:42:40;8.80;77.70
14144;DHT22;7152;48.348;10.980;2023-04-03T16:45:06;8.30;77.10
14144;DHT22;7152;48.348;10.980;2023-04-03T16:47:33;8.00;77.20
14144;DHT22;7152;48.348;10.980;2023-04-03T16:49:58;7.70;78.10
14144;DHT22;7152;48.348;10.980;2023-04-03T16:52:24;7.50;78.40
14144;DHT22;7152;48.348;10.980;2023-04-03T16:54:50;7.20;79.40
14144;DHT22;7152;48.348;10.980;2023-04-03T16:57:21;7.10;79.90
14144;DHT22;7152;48.348;10.980;2023-04-03T16:59:47;6.90;80.60
14144;DHT22;7152;48.348;10.980;2023-04-03T17:02:12;6.80;81.20
14144;DHT22;7152;48.348;10.980;2023-04-03T17:04:38;6.70;81.80
14144;DHT22;7152;48.348;10.980;2023-04-03T17:07:03;6.60;82.30
14144;DHT22;7152;48.348;10.980;2023-04-03T17:09:32;6.60;84.50
14144;DHT22;7152;48.348;10.980;2023-04-03T17:11:58;6.50;84.60
14144;DHT22;7152;48.348;10.980;2023-04-03T17:14:24;6.50;85.10
14144;DHT22;7152;48.348;10.980;2023-04-03T17:16:50;6.50;85.40